Time;durP1;ratioP1;P1;durP2;ratioP2;P2;SDS_P1;SDS_P2;PMS_P1;PMS_P2;Temp;Humidity;BMP_temperature;BMP_pressure;BME280_temperature;BME280_humidity;BME280_pressure;Samples;Min_cycle;Max_cycle;Signal;HPM_P1;HPM_P2
2022/04/07 00:01:37;;;;;;;0.20;0.13;;;17.00;59.50;;;;;;4974288;28;20054;-12
2022/04/07 00:04:02;;;;;;;0.32;0.22;;;17.00;59.60;;;;;;4989648;28;20045;-13
2022/04/07 00:06:28;;;;;;;0.35;0.32;;;17.00;59.80;;;;;;4981371;28;20483;-13
2022/04/07 00:08:54;;;;;;;0.45;0.40;;;17.00;59.70;;;;;;4986715;28;20069;-13
2022/04/07 00:11:19;;;;;;;0.20;0.20;;;17.00;59.70;;;;;;4986326;28;20054;-13
2022/04/07 00:13:45;;;;;;;0.50;0.30;;;17.00;59.80;;;;;;4987162;28;20042;-13
2022/04/07 00:16:10;;;;;;;0.20;0.20;;;17.00;59.70;;;;;;4988262;28;20038;-13
2022/04/07 00:18:36;;;;;;;0.30;0.20;;;17.00;59.70;;;;;;4988417;28;20052;-13
2022/04/07 00:21:11;;;;;;;0.40;0.30;;;17.00;59.80;;;;;;4983196;28;20054;-13
2022/04/07 00:23:38;;;;;;;0.20;0.20;;;17.00;59.70;;;;;;4990496;28;20105;-13
2022/04/07 00:26:03;;;;;;;0.30;0.20;;;17.00;59.50;;;;;;4991602;28;20050;-13
2022/04/07 00:28:29;;;;;;;0.22;0.20;;;17.00;59.50;;;;;;4987109;28;20053;-12
2022/04/07 00:30:55;;;;;;;0.95;0.22;;;17.00;59.50;;;;;;4971449;28;20053;-13
2022/04/07 00:33:20;;;;;;;0.17;0.15;;;17.00;59.60;;;;;;4972882;28;20054;-13
2022/04/07 00:35:46;;;;;;;0.50;0.30;;;17.00;59.40;;;;;;4983674;28;20050;-12
2022/04/07 00:38:11;;;;;;;0.20;0.20;;;17.10;59.60;;;;;;4991430;28;20050;-12
2022/04/07 00:40:37;;;;;;;0.20;0.10;;;17.10;59.50;;;;;;4982015;28;20500;-13
2022/04/07 00:43:04;;;;;;;0.40;0.40;;;17.10;59.50;;;;;;4975240;28;20081;-13
2022/04/07 00:45:30;;;;;;;0.25;0.20;;;17.10;59.50;;;;;;4987422;28;20452;-13
2022/04/07 00:47:58;;;;;;;0.20;0.20;;;17.00;59.60;;;;;;5008528;28;20392;-12
2022/04/07 00:50:23;;;;;;;0.30;0.20;;;17.00;59.60;;;;;;4991018;28;20114;-12
2022/04/07 00:52:50;;;;;;;0.30;0.20;;;17.00;59.60;;;;;;4976763;28;20602;-12
2022/04/07 00:55:16;;;;;;;0.40;0.30;;;17.00;59.60;;;;;;4992326;28;20086;-13
2022/04/07 00:57:42;;;;;;;0.73;0.40;;;17.00;59.60;;;;;;4990620;28;20049;-12
2022/04/07 01:00:09;;;;;;;0.20;0.20;;;17.00;59.70;;;;;;4984869;28;20110;-12
2022/04/07 01:02:35;;;;;;;0.40;0.20;;;17.00;59.70;;;;;;4992383;28;20073;-12
2022/04/07 01:05:02;;;;;;;0.52;0.30;;;17.00;59.50;;;;;;4996131;28;20419;-13
2022/04/07 01:07:28;;;;;;;0.70;0.30;;;17.00;59.70;;;;;;4983781;28;20055;-13
2022/04/07 01:09:53;;;;;;;0.30;0.10;;;17.00;59.70;;;;;;4983925;28;20044;-14
2022/04/07 01:12:19;;;;;;;0.50;0.15;;;16.90;59.70;;;;;;4998435;28;20712;-13
2022/04/07 01:14:55;;;;;;;0.22;0.20;;;17.00;59.70;;;;;;4997720;28;20038;-12
2022/04/07 01:17:21;;;;;;;0.32;0.32;;;17.00;59.60;;;;;;4977930;28;20050;-14
2022/04/07 01:19:47;;;;;;;0.10;0.10;;;17.00;59.50;;;;;;4984673;28;20057;-13
2022/04/07 01:22:13;;;;;;;0.32;0.25;;;17.00;59.70;;;;;;4978685;28;20527;-13
2022/04/07 01:24:39;;;;;;;1.65;0.47;;;16.90;59.70;;;;;;4978955;28;20053;-13
2022/04/07 01:27:05;;;;;;;0.47;0.28;;;16.90;59.70;;;;;;4995472;28;20038;-13
2022/04/07 01:29:30;;;;;;;0.30;0.13;;;16.90;59.80;;;;;;4985308;28;20084;-14
2022/04/07 01:31:56;;;;;;;1.65;0.10;;;16.90;59.80;;;;;;4978395;28;20136;-12
2022/04/07 01:34:22;;;;;;;0.10;0.10;;;16.90;59.90;;;;;;4971430;28;20492;-13
2022/04/07 01:36:49;;;;;;;0.22;0.20;;;16.90;59.90;;;;;;4993801;28;20412;-12
2022/04/07 01:39:15;;;;;;;0.40;0.30;;;16.80;59.90;;;;;;4996834;28;20120;-13
2022/04/07 01:41:41;;;;;;;0.38;0.20;;;16.80;60.00;;;;;;4988659;28;20173;-13
2022/04/07 01:44:07;;;;;;;0.30;0.20;;;16.80;59.90;;;;;;4992905;28;20094;-13
2022/04/07 01:46:33;;;;;;;0.75;0.35;;;16.80;59.90;;;;;;4979724;28;20042;-13
2022/04/07 01:48:59;;;;;;;0.43;0.20;;;16.80;60.00;;;;;;4995894;28;20515;-13
2022/04/07 01:51:25;;;;;;;0.40;0.30;;;16.80;60.10;;;;;;4996531;28;20456;-13
2022/04/07 01:53:51;;;;;;;0.57;0.20;;;16.80;60.20;;;;;;4996208;28;20039;-12
2022/04/07 01:56:18;;;;;;;0.30;0.30;;;16.80;60.10;;;;;;4995441;28;20066;-12
2022/04/07 01:58:43;;;;;;;0.30;0.30;;;16.90;59.90;;;;;;4997230;28;20034;-12
2022/04/07 02:01:09;;;;;;;0.40;0.20;;;16.80;60.00;;;;;;4996115;28;20038;-13
2022/04/07 02:03:35;;;;;;;0.17;0.10;;;16.80;59.90;;;;;;4992198;28;20582;-13
2022/04/07 02:06:14;;;;;;;0.35;0.17;;;16.90;60.00;;;;;;4977535;28;20058;-13
2022/04/07 02:08:40;;;;;;;0.20;0.20;;;16.90;59.70;;;;;;4977647;28;20130;-12
2022/04/07 02:11:06;;;;;;;0.52;0.30;;;16.90;59.80;;;;;;4993240;28;20136;-13
2022/04/07 02:13:33;;;;;;;1.27;0.28;;;16.90;59.70;;;;;;4997365;28;20096;-14
2022/04/07 02:15:58;;;;;;;0.13;0.10;;;16.90;59.70;;;;;;4995459;28;20129;-13
2022/04/07 02:18:24;;;;;;;0.50;0.45;;;16.90;59.70;;;;;;4977917;28;20141;-13
2022/04/07 02:20:49;;;;;;;0.68;0.10;;;16.90;59.70;;;;;;4977239;28;20134;-13
2022/04/07 02:23:15;;;;;;;0.40;0.38;;;16.90;60.50;;;;;;4977635;28;20047;-14
2022/04/07 02:25:41;;;;;;;0.30;0.30;;;16.90;59.80;;;;;;4977673;28;20051;-13
2022/04/07 02:28:06;;;;;;;0.13;0.10;;;16.90;59.70;;;;;;4977205;28;20073;-13
2022/04/07 02:30:32;;;;;;;0.22;0.10;;;16.90;59.80;;;;;;4977683;28;20051;-13
2022/04/07 02:32:57;;;;;;;0.30;0.15;;;16.90;59.70;;;;;;4977070;28;20046;-13
2022/04/07 02:35:23;;;;;;;0.30;0.20;;;16.90;59.70;;;;;;4977716;28;20085;-12
2022/04/07 02:37:48;;;;;;;0.20;0.20;;;16.90;59.80;;;;;;4976936;28;20074;-12
2022/04/07 02:40:14;;;;;;;0.13;0.10;;;16.80;60.10;;;;;;4977449;28;20050;-12
2022/04/07 02:42:40;;;;;;;0.00;0.00;;;16.80;60.00;;;;;;4977509;28;20034;-13
2022/04/07 02:45:06;;;;;;;0.45;0.20;;;16.90;59.90;;;;;;4976669;28;20058;-13
2022/04/07 02:47:32;;;;;;;0.20;0.20;;;16.80;60.20;;;;;;4977135;28;20097;-13
2022/04/07 02:49:58;;;;;;;0.40;0.20;;;16.80;60.10;;;;;;4976791;28;20055;-12
2022/04/07 02:52:23;;;;;;;0.30;0.30;;;16.80;60.00;;;;;;4991937;28;20039;-12
2022/04/07 02:54:49;;;;;;;0.10;0.10;;;16.80;60.30;;;;;;4990880;28;20085;-13
2022/04/07 02:57:14;;;;;;;0.40;0.15;;;16.80;60.10;;;;;;4987087;28;20512;-13
2022/04/07 02:59:40;;;;;;;0.32;0.30;;;16.80;60.10;;;;;;4996352;28;20042;-12
2022/04/07 03:02:06;;;;;;;0.30;0.17;;;16.80;60.20;;;;;;4995890;28;20034;-13
2022/04/07 03:04:31;;;;;;;0.20;0.10;;;16.80;60.30;;;;;;4995656;28;20484;-13
2022/04/07 03:06:57;;;;;;;0.17;0.10;;;16.80;60.20;;;;;;4995759;28;20042;-13
2022/04/07 03:09:22;;;;;;;0.20;0.10;;;16.80;60.10;;;;;;4990950;28;20050;-12
2022/04/07 03:11:48;;;;;;;0.40;0.20;;;16.80;60.20;;;;;;4996260;28;20042;-13
2022/04/07 03:14:14;;;;;;;0.32;0.22;;;16.80;60.00;;;;;;4992376;28;20089;-12
2022/04/07 03:16:40;;;;;;;0.20;0.17;;;16.80;60.20;;;;;;4976982;28;20045;-12
2022/04/07 03:19:06;;;;;;;0.13;0.10;;;16.80;60.10;;;;;;4976102;28;20047;-13
2022/04/07 03:21:32;;;;;;;0.30;0.20;;;16.80;60.10;;;;;;4977008;28;20053;-12
2022/04/07 03:23:57;;;;;;;0.30;0.20;;;16.70;60.20;;;;;;4974476;28;20543;-13
2022/04/07 03:26:23;;;;;;;0.32;0.10;;;16.80;60.30;;;;;;4976750;28;20050;-12
2022/04/07 03:28:49;;;;;;;0.30;0.20;;;16.80;60.10;;;;;;4976708;28;20176;-13
2022/04/07 03:31:14;;;;;;;0.30;0.20;;;16.70;60.30;;;;;;4975607;28;20160;-13
2022/04/07 03:33:40;;;;;;;0.40;0.20;;;16.80;60.10;;;;;;4976659;28;20047;-14
2022/04/07 03:36:06;;;;;;;0.10;0.10;;;16.70;60.30;;;;;;4976056;28;20038;-12
2022/04/07 03:38:31;;;;;;;0.30;0.20;;;16.70;60.30;;;;;;4976539;28;20047;-14
2022/04/07 03:40:57;;;;;;;0.30;0.20;;;16.70;60.20;;;;;;4992406;28;20129;-13
2022/04/07 03:43:22;;;;;;;0.57;0.40;;;16.80;60.10;;;;;;4995791;28;20057;-12
2022/04/07 03:45:49;;;;;;;0.22;0.20;;;16.80;60.00;;;;;;4976348;28;20043;-13
2022/04/07 03:48:14;;;;;;;0.20;0.10;;;16.80;60.50;;;;;;4976206;28;20054;-13
2022/04/07 03:50:40;;;;;;;0.82;0.10;;;16.80;60.10;;;;;;4976508;28;20101;-13
2022/04/07 03:53:06;;;;;;;0.20;0.10;;;16.70;60.30;;;;;;4975712;28;20051;-13
2022/04/07 03:55:32;;;;;;;0.10;0.10;;;16.80;60.20;;;;;;4976162;28;20119;-12
2022/04/07 03:57:57;;;;;;;0.32;0.20;;;16.70;60.30;;;;;;4995197;28;20054;-13
2022/04/07 04:00:23;;;;;;;0.40;0.20;;;16.80;60.30;;;;;;4995622;28;20038;-12
2022/04/07 04:02:50;;;;;;;0.20;0.10;;;16.80;60.20;;;;;;4995806;28;20046;-12
2022/04/07 04:05:17;;;;;;;0.43;0.20;;;16.80;60.30;;;;;;4985636;28;20046;-12
2022/04/07 04:07:42;;;;;;;0.15;0.10;;;16.80;60.30;;;;;;4976306;28;20098;-12
2022/04/07 04:10:08;;;;;;;0.13;0.10;;;16.70;60.40;;;;;;4989405;28;20050;-13
2022/04/07 04:12:34;;;;;;;0.20;0.10;;;16.70;60.50;;;;;;4995674;28;20047;-13
2022/04/07 04:15:01;;;;;;;0.13;0.10;;;16.70;60.30;;;;;;4994778;28;20046;-13
2022/04/07 04:17:30;;;;;;;0.22;0.20;;;16.80;60.20;;;;;;4999556;28;20053;-13
2022/04/07 04:19:55;;;;;;;0.10;0.10;;;16.70;60.30;;;;;;4998935;28;20047;-13
2022/04/07 04:22:21;;;;;;;0.10;0.10;;;16.70;60.30;;;;;;4994424;28;20058;-13
2022/04/07 04:24:47;;;;;;;0.05;0.05;;;16.80;60.20;;;;;;4980065;28;20125;-12
2022/04/07 04:27:13;;;;;;;0.52;0.22;;;16.70;60.60;;;;;;4979103;28;20058;-13
2022/04/07 04:29:40;;;;;;;0.30;0.17;;;16.70;60.30;;;;;;4979859;28;20046;-14
2022/04/07 04:32:06;;;;;;;0.43;0.20;;;16.70;60.60;;;;;;4992599;28;20133;-13
2022/04/07 04:34:31;;;;;;;0.45;0.20;;;16.70;60.60;;;;;;4979798;28;20066;-13
2022/04/07 04:36:57;;;;;;;0.30;0.20;;;16.70;60.30;;;;;;4995242;28;20057;-13
2022/04/07 04:39:24;;;;;;;0.32;0.20;;;16.70;60.10;;;;;;4999037;28;20038;-12
2022/04/07 04:41:49;;;;;;;0.22;0.20;;;16.70;60.30;;;;;;4998971;28;20043;-13
2022/04/07 04:44:15;;;;;;;0.13;0.13;;;16.70;60.40;;;;;;4986102;28;20097;-13
2022/04/07 04:46:41;;;;;;;0.20;0.10;;;16.70;60.30;;;;;;4981424;28;20043;-13
2022/04/07 04:49:06;;;;;;;0.35;0.15;;;16.70;60.10;;;;;;4998450;28;20522;-13
2022/04/07 04:51:32;;;;;;;0.38;0.25;;;16.70;60.10;;;;;;4987880;28;20451;-13
2022/04/07 04:53:58;;;;;;;0.10;0.10;;;16.70;60.20;;;;;;4978830;28;20079;-12
2022/04/07 04:56:23;;;;;;;0.20;0.17;;;16.70;60.30;;;;;;4986178;28;20074;-12
2022/04/07 04:58:49;;;;;;;0.17;0.10;;;16.70;60.40;;;;;;4998424;28;20055;-12
2022/04/07 05:01:15;;;;;;;0.30;0.20;;;16.70;60.40;;;;;;4982109;28;20047;-12
2022/04/07 05:03:40;;;;;;;0.28;0.10;;;16.70;60.30;;;;;;4979319;28;20051;-13
2022/04/07 05:06:06;;;;;;;0.15;0.15;;;16.70;60.40;;;;;;4978696;28;20046;-12
2022/04/07 05:08:31;;;;;;;0.40;0.40;;;16.70;60.20;;;;;;4979152;28;20043;-13
2022/04/07 05:10:57;;;;;;;0.10;0.10;;;16.70;60.90;;;;;;4994943;28;20142;-12
2022/04/07 05:13:23;;;;;;;0.32;0.30;;;16.70;60.60;;;;;;4995093;28;20047;-13
2022/04/07 05:15:48;;;;;;;0.32;0.17;;;16.70;60.50;;;;;;4978943;28;20085;-13
2022/04/07 05:18:14;;;;;;;0.30;0.20;;;16.80;60.30;;;;;;4978555;28;20117;-13
2022/04/07 05:20:39;;;;;;;0.20;0.20;;;16.70;60.40;;;;;;4979033;28;20134;-12
2022/04/07 05:23:05;;;;;;;0.28;0.20;;;16.70;60.60;;;;;;4978123;28;20105;-13
2022/04/07 05:25:31;;;;;;;0.55;0.28;;;16.70;60.60;;;;;;4978994;28;20043;-13
2022/04/07 05:27:56;;;;;;;0.10;0.10;;;16.70;60.80;;;;;;4978181;28;20042;-13
2022/04/07 05:30:22;;;;;;;0.20;0.20;;;16.70;60.40;;;;;;4977865;28;20140;-12
2022/04/07 05:32:48;;;;;;;1.08;0.25;;;16.60;60.80;;;;;;4636580;28;9999988;-13
2022/04/07 05:35:15;;;;;;;0.98;0.20;;;16.70;60.40;;;;;;4993897;28;20101;-13
2022/04/07 05:37:41;;;;;;;0.68;0.20;;;16.60;61.10;;;;;;5001654;28;20042;-14
2022/04/07 05:40:09;;;;;;;0.30;0.20;;;16.50;61.30;;;;;;5001554;28;20136;-12
2022/04/07 05:42:34;;;;;;;0.30;0.30;;;16.50;61.30;;;;;;5009450;28;20053;-13
2022/04/07 05:45:00;;;;;;;0.32;0.10;;;16.50;61.20;;;;;;5006272;28;20499;-13
2022/04/07 05:47:25;;;;;;;1.27;0.15;;;16.50;61.40;;;;;;4994524;28;20082;-12
2022/04/07 05:49:54;;;;;;;0.50;0.20;;;16.60;61.10;;;;;;4997140;28;20054;-13
2022/04/07 05:52:19;;;;;;;2.08;0.13;;;16.60;61.20;;;;;;4999133;28;20050;-12
2022/04/07 05:54:45;;;;;;;0.40;0.20;;;16.60;61.50;;;;;;5002036;28;20055;-12
2022/04/07 05:57:10;;;;;;;0.50;0.20;;;16.50;61.40;;;;;;4997913;28;20042;-13
2022/04/07 05:59:36;;;;;;;0.20;0.20;;;16.50;61.70;;;;;;4997654;28;20060;-12
2022/04/07 06:02:02;;;;;;;0.40;0.20;;;16.50;61.70;;;;;;4999259;28;20495;-12
2022/04/07 06:04:27;;;;;;;0.30;0.25;;;16.50;61.50;;;;;;4991260;28;20507;-12
2022/04/07 06:06:53;;;;;;;0.50;0.10;;;16.60;61.50;;;;;;4993483;28;20046;-13
2022/04/07 06:09:18;;;;;;;0.30;0.10;;;16.60;61.40;;;;;;4990744;28;20050;-13
2022/04/07 06:11:44;;;;;;;1.17;0.15;;;16.60;61.30;;;;;;5004525;28;20041;-12
2022/04/07 06:14:10;;;;;;;0.38;0.20;;;16.70;61.10;;;;;;4994192;28;20037;-13
2022/04/07 06:16:35;;;;;;;0.10;0.10;;;16.70;60.90;;;;;;5002919;28;20056;-13
2022/04/07 06:19:01;;;;;;;0.47;0.20;;;16.70;60.80;;;;;;4985050;28;20541;-13
2022/04/07 06:21:35;;;;;;;0.55;0.20;;;16.70;60.60;;;;;;5012855;28;20046;-12
2022/04/07 06:24:01;;;;;;;0.20;0.20;;;16.70;60.90;;;;;;4994079;28;20141;-12
2022/04/07 06:26:26;;;;;;;1.55;0.20;;;16.70;61.00;;;;;;5005430;28;20070;-13
2022/04/07 06:28:52;;;;;;;0.22;0.10;;;16.70;61.10;;;;;;4994246;28;20053;-13
2022/04/07 06:31:18;;;;;;;0.73;0.20;;;16.70;60.90;;;;;;5004309;28;20237;-13
2022/04/07 06:33:43;;;;;;;3.92;0.15;;;16.70;61.00;;;;;;4987875;28;20053;-14
2022/04/07 06:36:09;;;;;;;0.50;0.13;;;16.70;61.50;;;;;;4995284;28;20045;-12
2022/04/07 06:38:34;;;;;;;2.15;0.20;;;16.70;61.60;;;;;;4986259;28;20047;-13
2022/04/07 06:41:00;;;;;;;0.68;0.20;;;16.70;61.60;;;;;;4991014;28;20109;-15
2022/04/07 06:43:26;;;;;;;0.75;0.32;;;16.70;61.00;;;;;;4995964;28;20042;-12
2022/04/07 06:45:52;;;;;;;0.20;0.20;;;16.70;61.20;;;;;;4980266;28;20050;-14
2022/04/07 06:48:18;;;;;;;0.43;0.20;;;16.70;60.80;;;;;;4976545;28;20046;-13
2022/04/07 06:50:46;;;;;;;1.30;0.20;;;16.70;61.30;;;;;;4975536;28;20054;-13
2022/04/07 06:53:12;;;;;;;0.20;0.10;;;16.60;61.40;;;;;;4975751;28;20089;-14
2022/04/07 06:55:38;;;;;;;0.20;0.17;;;16.60;61.30;;;;;;4977267;28;20047;-13
2022/04/07 06:58:06;;;;;;;0.20;0.10;;;16.60;61.30;;;;;;4976780;28;20038;-13
2022/04/07 07:00:33;;;;;;;0.17;0.10;;;16.60;61.30;;;;;;4976964;28;20051;-14
2022/04/07 07:03:01;;;;;;;0.60;0.15;;;16.60;61.30;;;;;;4976906;28;20083;-15
2022/04/07 07:05:28;;;;;;;0.20;0.20;;;16.60;61.50;;;;;;4976748;28;20508;-14
2022/04/07 07:07:54;;;;;;;0.52;0.15;;;16.60;61.50;;;;;;4977171;28;20039;-14
2022/04/07 07:10:20;;;;;;;1.45;0.10;;;16.60;61.40;;;;;;4987740;28;20046;-13
2022/04/07 07:12:47;;;;;;;1.08;0.20;;;16.60;61.30;;;;;;4984741;28;20046;-14
2022/04/07 07:15:13;;;;;;;0.20;0.20;;;16.60;61.20;;;;;;4976221;28;20053;-13
2022/04/07 07:17:39;;;;;;;0.22;0.22;;;16.60;61.30;;;;;;4977012;28;20051;-13
2022/04/07 07:20:05;;;;;;;0.30;0.20;;;16.60;61.20;;;;;;4976434;28;20369;-14
2022/04/07 07:22:31;;;;;;;0.45;0.10;;;16.60;61.20;;;;;;4976367;28;20102;-14
2022/04/07 07:24:57;;;;;;;0.40;0.20;;;16.60;61.10;;;;;;4977317;28;20052;-13
2022/04/07 07:27:23;;;;;;;0.50;0.20;;;16.60;61.10;;;;;;4976271;28;20455;-13
2022/04/07 07:29:49;;;;;;;0.10;0.05;;;16.60;61.10;;;;;;4976599;28;20058;-13
2022/04/07 07:32:14;;;;;;;0.38;0.20;;;16.60;61.00;;;;;;4991056;28;20038;-12
2022/04/07 07:34:40;;;;;;;0.20;0.20;;;16.60;61.00;;;;;;4976755;28;20053;-13
2022/04/07 07:37:06;;;;;;;0.40;0.10;;;16.60;60.80;;;;;;4975978;28;20475;-14
2022/04/07 07:39:31;;;;;;;0.17;0.10;;;16.70;60.90;;;;;;4976695;28;20045;-13
2022/04/07 07:41:57;;;;;;;0.20;0.20;;;16.70;60.90;;;;;;4976576;28;20046;-13
2022/04/07 07:44:24;;;;;;;0.50;0.17;;;16.70;60.90;;;;;;4979762;28;20054;-14
2022/04/07 07:46:50;;;;;;;0.10;0.10;;;16.70;60.80;;;;;;4996001;28;20034;-13
2022/04/07 07:49:15;;;;;;;0.15;0.15;;;16.70;60.70;;;;;;4995423;28;20042;-14
2022/04/07 07:51:41;;;;;;;0.20;0.20;;;16.70;60.60;;;;;;4998341;28;20046;-14
2022/04/07 07:54:06;;;;;;;0.40;0.20;;;16.60;60.70;;;;;;4981114;28;20050;-13
2022/04/07 07:56:32;;;;;;;0.10;0.08;;;16.70;60.70;;;;;;4983018;28;20069;-13
2022/04/07 07:58:58;;;;;;;0.15;0.13;;;16.70;60.50;;;;;;4982763;28;20058;-13
2022/04/07 08:01:24;;;;;;;0.30;0.20;;;16.70;60.40;;;;;;4982588;28;20061;-14
2022/04/07 08:03:50;;;;;;;0.20;0.13;;;16.70;60.40;;;;;;4982901;28;20570;-13
2022/04/07 08:06:15;;;;;;;0.10;0.10;;;16.80;60.20;;;;;;4982326;28;20513;-13
2022/04/07 08:08:41;;;;;;;0.15;0.10;;;16.70;60.40;;;;;;4982792;28;20051;-14
2022/04/07 08:11:06;;;;;;;0.10;0.10;;;16.70;60.40;;;;;;4992129;28;20039;-14
2022/04/07 08:13:32;;;;;;;0.20;0.10;;;16.70;60.50;;;;;;4982829;28;20050;-13
2022/04/07 08:15:58;;;;;;;0.40;0.25;;;16.70;60.30;;;;;;4982658;28;20046;-14
2022/04/07 08:18:23;;;;;;;0.50;0.20;;;16.70;60.20;;;;;;4982212;28;20415;-13
2022/04/07 08:20:49;;;;;;;0.57;0.20;;;16.70;60.10;;;;;;4982839;28;20138;-13
2022/04/07 08:23:15;;;;;;;0.82;0.40;;;16.70;60.10;;;;;;4981996;28;20062;-12
2022/04/07 08:25:41;;;;;;;0.22;0.10;;;16.80;60.00;;;;;;4982754;28;20500;-14
2022/04/07 08:28:06;;;;;;;0.20;0.10;;;16.80;60.10;;;;;;4982168;28;20066;-14
2022/04/07 08:30:34;;;;;;;0.40;0.10;;;16.70;60.00;;;;;;4982508;28;20101;-14
2022/04/07 08:33:01;;;;;;;0.10;0.00;;;16.70;60.30;;;;;;4982793;28;20057;-13
2022/04/07 08:35:26;;;;;;;0.13;0.10;;;16.70;60.30;;;;;;4982118;28;20042;-13
2022/04/07 08:37:52;;;;;;;0.38;0.10;;;16.80;60.30;;;;;;4981140;28;20054;-13
2022/04/07 08:40:21;;;;;;;0.10;0.10;;;16.70;60.50;;;;;;4982046;28;20077;-13
2022/04/07 08:42:47;;;;;;;0.20;0.10;;;16.70;60.30;;;;;;4982657;28;20074;-13
2022/04/07 08:45:12;;;;;;;0.20;0.13;;;16.70;60.20;;;;;;4989294;28;20504;-13
2022/04/07 08:47:38;;;;;;;0.10;0.10;;;16.70;60.30;;;;;;4982484;28;20050;-14
2022/04/07 08:50:04;;;;;;;1.45;0.25;;;16.70;60.10;;;;;;4993470;28;20533;-14
2022/04/07 08:52:30;;;;;;;0.15;0.10;;;16.80;59.90;;;;;;4981793;28;20517;-13
2022/04/07 08:54:56;;;;;;;0.10;0.10;;;16.70;60.00;;;;;;4992506;28;20042;-14
2022/04/07 08:57:21;;;;;;;0.40;0.13;;;16.70;60.10;;;;;;4981606;28;20527;-14
2022/04/07 08:59:47;;;;;;;0.25;0.10;;;16.80;60.10;;;;;;4982139;28;20058;-14
2022/04/07 09:02:13;;;;;;;1.33;0.20;;;16.70;60.20;;;;;;4980337;28;20039;-13
2022/04/07 09:04:39;;;;;;;0.20;0.10;;;16.70;60.10;;;;;;4979387;28;20424;-14
2022/04/07 09:07:05;;;;;;;0.00;0.00;;;16.70;60.10;;;;;;4979376;28;20042;-13
2022/04/07 09:09:31;;;;;;;0.25;0.15;;;16.70;60.20;;;;;;4983130;28;20041;-14
2022/04/07 09:11:57;;;;;;;0.17;0.10;;;16.70;60.20;;;;;;4998816;28;20507;-14
2022/04/07 09:14:22;;;;;;;0.25;0.10;;;16.70;60.20;;;;;;4996498;28;20045;-13
2022/04/07 09:16:55;;;;;;;0.30;0.20;;;16.70;60.20;;;;;;4981133;28;20105;-14
2022/04/07 09:19:22;;;;;;;0.20;0.08;;;16.70;60.10;;;;;;4978499;28;20102;-13
2022/04/07 09:21:48;;;;;;;0.20;0.10;;;16.70;60.30;;;;;;4978712;28;20042;-13
2022/04/07 09:24:15;;;;;;;0.25;0.10;;;16.70;60.30;;;;;;4978556;28;20445;-14
2022/04/07 09:26:43;;;;;;;0.15;0.10;;;16.70;60.20;;;;;;4979120;28;20538;-14
2022/04/07 09:29:13;;;;;;;0.10;0.10;;;16.70;60.10;;;;;;4978336;28;20050;-14
2022/04/07 09:31:40;;;;;;;0.57;0.22;;;16.70;60.10;;;;;;4997966;28;20050;-14
2022/04/07 09:34:06;;;;;;;0.10;0.10;;;16.70;60.10;;;;;;4998342;28;20499;-13
2022/04/07 09:36:32;;;;;;;0.10;0.10;;;16.70;60.20;;;;;;4997683;28;20447;-13
2022/04/07 09:39:04;;;;;;;0.22;0.20;;;16.80;60.20;;;;;;4998162;28;20046;-13
2022/04/07 09:41:30;;;;;;;0.10;0.10;;;16.80;60.20;;;;;;4997580;28;20463;-14
2022/04/07 09:43:59;;;;;;;0.30;0.20;;;16.80;60.20;;;;;;4996197;28;20100;-14
2022/04/07 09:46:38;;;;;;;0.73;0.22;;;16.70;60.40;;;;;;4997450;28;20053;-14
2022/04/07 09:49:10;;;;;;;0.35;0.20;;;16.70;60.50;;;;;;4997938;28;20133;-13
2022/04/07 09:51:46;;;;;;;0.47;0.20;;;16.80;60.50;;;;;;4984826;28;20078;-13
2022/04/07 09:54:13;;;;;;;0.10;0.10;;;16.80;60.40;;;;;;4976600;28;20066;-15
2022/04/07 09:56:39;;;;;;;0.20;0.10;;;16.70;61.20;;;;;;4978395;28;20054;-14
2022/04/07 09:59:08;;;;;;;0.30;0.20;;;16.80;60.10;;;;;;4976951;28;20039;-14
2022/04/07 10:01:34;;;;;;;0.10;0.10;;;16.80;60.40;;;;;;4975144;28;20467;-14
2022/04/07 10:04:00;;;;;;;0.20;0.10;;;16.80;60.50;;;;;;4978206;28;20039;-14
2022/04/07 10:06:26;;;;;;;0.10;0.10;;;16.80;60.50;;;;;;4976183;28;20046;-13
2022/04/07 10:08:51;;;;;;;0.20;0.15;;;16.80;60.70;;;;;;4978157;28;20069;-15
2022/04/07 10:11:17;;;;;;;0.10;0.10;;;16.70;60.60;;;;;;4983629;28;20047;-14
2022/04/07 10:13:44;;;;;;;0.10;0.10;;;16.70;60.80;;;;;;4977441;28;20039;-13
2022/04/07 10:16:10;;;;;;;0.40;0.20;;;16.70;60.90;;;;;;4978208;28;20133;-14
2022/04/07 10:19:07;;;;;;;0.20;0.10;;;16.70;60.70;;;;;;4976006;28;20065;-14
2022/04/07 10:22:01;;;;;;;0.30;0.28;;;16.80;60.50;;;;;;4976284;28;20065;-14
2022/04/07 10:24:34;;;;;;;0.13;0.13;;;16.80;60.50;;;;;;4976027;28;20057;-13
2022/04/07 10:27:01;;;;;;;0.25;0.20;;;16.80;60.70;;;;;;4977784;28;20051;-14
2022/04/07 10:29:27;;;;;;;0.47;0.30;;;16.80;60.70;;;;;;4977081;28;20066;-15
2022/04/07 10:32:11;;;;;;;0.20;0.10;;;16.80;60.60;;;;;;4976526;28;20507;-15
2022/04/07 10:34:52;;;;;;;0.20;0.15;;;16.80;60.70;;;;;;4977235;28;20043;-13
2022/04/07 10:37:27;;;;;;;0.30;0.20;;;16.80;60.50;;;;;;4975223;28;20043;-15
2022/04/07 10:39:53;;;;;;;0.30;0.30;;;16.80;60.50;;;;;;4976181;28;20077;-14
2022/04/07 10:42:18;;;;;;;0.30;0.28;;;16.80;60.60;;;;;;4996092;28;20082;-13
2022/04/07 10:44:44;;;;;;;0.20;0.20;;;16.80;60.50;;;;;;4995257;28;20525;-14
2022/04/07 10:47:10;;;;;;;0.10;0.10;;;16.80;60.30;;;;;;4995304;28;20038;-13
2022/04/07 10:49:35;;;;;;;0.32;0.17;;;16.80;60.50;;;;;;4994445;28;20054;-14
2022/04/07 10:52:06;;;;;;;0.20;0.15;;;16.80;60.40;;;;;;4975863;28;20089;-13
2022/04/07 10:54:32;;;;;;;0.20;0.20;;;16.80;60.40;;;;;;4976777;28;20487;-14
2022/04/07 10:57:01;;;;;;;0.20;0.20;;;16.80;61.30;;;;;;4977359;28;20377;-14
2022/04/07 10:59:34;;;;;;;0.40;0.30;;;16.80;60.30;;;;;;4976493;28;20051;-14
2022/04/07 11:02:03;;;;;;;0.10;0.10;;;16.80;60.40;;;;;;4983399;28;20512;-14
2022/04/07 11:04:33;;;;;;;0.20;0.17;;;16.80;60.40;;;;;;4994411;28;20042;-14
2022/04/07 11:07:07;;;;;;;0.38;0.38;;;16.80;60.50;;;;;;4996158;28;20053;-14
2022/04/07 11:09:55;;;;;;;0.50;0.20;;;16.80;60.70;;;;;;4985025;28;20039;-14
2022/04/07 11:12:29;;;;;;;0.73;0.35;;;16.80;60.50;;;;;;4995807;28;20133;-13
2022/04/07 11:15:01;;;;;;;0.30;0.30;;;16.80;60.50;;;;;;4996143;28;20042;-15
2022/04/07 11:17:42;;;;;;;0.20;0.20;;;16.80;60.60;;;;;;4994908;28;20061;-14
2022/04/07 11:20:15;;;;;;;0.20;0.20;;;16.80;60.60;;;;;;4996258;28;20507;-14
2022/04/07 11:22:52;;;;;;;0.30;0.30;;;16.80;60.70;;;;;;4985775;28;20134;-13
2022/04/07 11:25:29;;;;;;;0.25;0.20;;;16.90;60.80;;;;;;4975621;28;20035;-15
2022/04/07 11:28:04;;;;;;;0.57;0.35;;;16.90;60.60;;;;;;4976862;28;20070;-14
2022/04/07 11:30:40;;;;;;;0.43;0.30;;;16.90;60.70;;;;;;4981690;28;20099;-14
2022/04/07 11:33:25;;;;;;;0.68;0.57;;;16.90;60.70;;;;;;5003227;28;20050;-14
2022/04/07 11:36:00;;;;;;;0.13;0.13;;;16.90;60.90;;;;;;4995711;28;20046;-14
2022/04/07 11:38:29;;;;;;;0.20;0.10;;;16.90;60.70;;;;;;4991379;28;20042;-14
2022/04/07 11:41:11;;;;;;;1.33;0.10;;;16.90;60.80;;;;;;4976547;28;20122;-14
2022/04/07 11:43:40;;;;;;;0.95;0.30;;;16.90;60.80;;;;;;4975720;28;20047;-14
2022/04/07 11:46:06;;;;;;;1.55;0.20;;;16.90;60.80;;;;;;4985396;28;20045;-14
2022/04/07 11:48:33;;;;;;;0.30;0.20;;;16.90;60.70;;;;;;4995350;28;20558;-14
2022/04/07 11:51:01;;;;;;;0.40;0.20;;;16.90;60.70;;;;;;4993747;28;20038;-13
2022/04/07 11:53:28;;;;;;;0.30;0.20;;;17.00;60.60;;;;;;4992763;28;20050;-14
2022/04/07 11:55:54;;;;;;;0.28;0.20;;;17.00;60.50;;;;;;4994321;28;20054;-14
2022/04/07 11:58:19;;;;;;;0.47;0.25;;;17.00;60.40;;;;;;4989002;28;20046;-13
2022/04/07 12:00:45;;;;;;;0.40;0.40;;;17.00;60.20;;;;;;4995546;28;20049;-13
2022/04/07 12:03:10;;;;;;;0.30;0.10;;;17.00;60.10;;;;;;4994306;28;20059;-14
2022/04/07 12:05:39;;;;;;;0.30;0.30;;;17.00;60.10;;;;;;4988675;28;20057;-14
2022/04/07 12:08:15;;;;;;;0.15;0.15;;;17.00;60.10;;;;;;4994307;28;20074;-14
2022/04/07 12:10:42;;;;;;;0.70;0.30;;;17.10;60.10;;;;;;4995003;28;20043;-14
2022/04/07 12:13:08;;;;;;;0.20;0.20;;;17.10;60.20;;;;;;4994363;28;20050;-14
2022/04/07 12:15:34;;;;;;;0.47;0.30;;;17.10;60.20;;;;;;4993153;28;20053;-15
2022/04/07 12:18:07;;;;;;;0.17;0.10;;;17.00;60.50;;;;;;4995577;28;20081;-14
2022/04/07 12:20:32;;;;;;;0.20;0.20;;;17.00;60.50;;;;;;4994646;28;20064;-14
2022/04/07 12:23:13;;;;;;;0.38;0.30;;;17.00;60.40;;;;;;4993996;28;20507;-15
2022/04/07 12:25:40;;;;;;;0.10;0.10;;;17.10;60.40;;;;;;4994945;28;20053;-15
2022/04/07 12:28:16;;;;;;;0.15;0.15;;;17.00;60.50;;;;;;4995421;28;20140;-14
2022/04/07 12:30:46;;;;;;;0.20;0.10;;;17.10;60.50;;;;;;4994617;28;20128;-15
2022/04/07 12:33:12;;;;;;;0.20;0.13;;;17.10;60.30;;;;;;4995385;28;20050;-13
2022/04/07 12:35:47;;;;;;;0.47;0.40;;;17.10;60.20;;;;;;4994831;28;20586;-14
2022/04/07 12:38:12;;;;;;;0.30;0.30;;;17.10;60.20;;;;;;4996703;28;20043;-14
2022/04/07 12:40:38;;;;;;;0.75;0.45;;;17.10;60.10;;;;;;4989519;28;20097;-13
2022/04/07 12:43:04;;;;;;;0.30;0.20;;;17.10;60.00;;;;;;4999153;28;20050;-14
2022/04/07 12:45:30;;;;;;;0.35;0.30;;;17.10;60.00;;;;;;4998227;28;20101;-15
2022/04/07 12:48:05;;;;;;;0.47;0.20;;;17.20;60.10;;;;;;4999079;28;20057;-16